createdAt,value
2023-05-13T00:01:55.226Z,9.97
2023-05-13T00:04:27.426Z,12.87
2023-05-13T00:07:01.667Z,9.07
2023-05-13T00:09:34.518Z,13.17
2023-05-13T00:12:08.233Z,12.13
2023-05-13T00:14:41.126Z,10.67
2023-05-13T00:17:13.428Z,13.37
2023-05-13T00:19:45.800Z,9.87
2023-05-13T00:22:20.747Z,14.77
2023-05-13T00:24:53.031Z,12.20
2023-05-13T00:27:27.480Z,11.43
2023-05-13T00:30:01.114Z,10.97
2023-05-13T00:32:33.424Z,14.47
2023-05-13T00:35:13.204Z,13.77
2023-05-13T00:37:45.672Z,17.90
2023-05-13T00:40:23.435Z,10.70
2023-05-13T00:42:57.177Z,13.03
2023-05-13T00:45:29.922Z,10.03
2023-05-13T00:48:03.845Z,13.57
2023-05-13T00:50:38.528Z,13.22
2023-05-13T00:53:11.910Z,13.27
2023-05-13T00:55:46.332Z,14.17
2023-05-13T00:58:18.839Z,12.00
2023-05-13T01:00:58.859Z,14.40
2023-05-13T01:03:41.540Z,11.57
2023-05-13T01:06:18.638Z,11.33
2023-05-13T01:08:58.505Z,13.73
2023-05-13T01:11:36.660Z,15.47
2023-05-13T01:14:14.575Z,11.97
2023-05-13T01:16:50.944Z,10.53
2023-05-13T01:19:41.513Z,11.63
2023-05-13T01:22:14.562Z,10.97
2023-05-13T01:24:47.189Z,13.63
2023-05-13T01:27:20.016Z,13.03
2023-05-13T01:29:54.277Z,13.00
2023-05-13T01:32:29.798Z,14.00
2023-05-13T01:35:02.914Z,9.30
2023-05-13T01:37:39.144Z,11.35
2023-05-13T01:40:28.107Z,10.27
2023-05-13T01:43:07.762Z,16.23
2023-05-13T01:45:45.038Z,9.95
2023-05-13T01:48:18.982Z,15.43
2023-05-13T01:50:53.608Z,13.50
2023-05-13T01:53:26.063Z,13.30
2023-05-13T01:55:58.609Z,13.47
2023-05-13T01:58:31.628Z,16.57
2023-05-13T02:01:04.282Z,13.47
2023-05-13T02:03:38.203Z,13.90
2023-05-13T02:06:11.107Z,10.37
2023-05-13T02:08:47.315Z,16.83
2023-05-13T02:11:19.588Z,15.30
2023-05-13T02:13:52.162Z,12.83
2023-05-13T02:16:25.149Z,11.80
2023-05-13T02:18:57.852Z,14.63
2023-05-13T02:21:33.583Z,9.87
2023-05-13T02:24:06.715Z,11.07
2023-05-13T02:26:41.695Z,13.20
2023-05-13T02:29:15.210Z,15.13
2023-05-13T02:31:47.592Z,15.43
2023-05-13T02:34:20.514Z,15.37
2023-05-13T02:36:54.084Z,17.10
2023-05-13T02:39:26.960Z,12.80
2023-05-13T02:42:00.572Z,9.47
2023-05-13T02:44:34.042Z,10.70
2023-05-13T02:47:09.618Z,14.30
2023-05-13T02:49:45.442Z,12.17
2023-05-13T02:52:17.778Z,13.47
2023-05-13T02:54:50.186Z,12.43
2023-05-13T02:57:25.756Z,13.93
2023-05-13T02:59:58.159Z,16.23
2023-05-13T03:02:30.611Z,11.17
2023-05-13T03:05:02.965Z,15.57
2023-05-13T03:07:38.517Z,19.40
2023-05-13T03:10:15.150Z,16.43
2023-05-13T03:12:47.367Z,11.20
2023-05-13T03:15:22.981Z,12.80
2023-05-13T03:17:56.589Z,13.80
2023-05-13T03:20:29.693Z,21.73
2023-05-13T03:23:04.561Z,12.40
2023-05-13T03:25:37.888Z,12.03
2023-05-13T03:28:11.739Z,15.80
2023-05-13T03:30:49.847Z,16.67
2023-05-13T03:33:24.491Z,15.67
2023-05-13T03:35:56.742Z,16.63
2023-05-13T03:38:32.279Z,14.93
2023-05-13T03:41:05.975Z,14.90
2023-05-13T03:43:39.442Z,14.63
2023-05-13T03:46:33.426Z,15.83
2023-05-13T03:49:08.466Z,20.00
2023-05-13T03:51:43.297Z,15.05
2023-05-13T03:54:16.327Z,21.53
2023-05-13T03:56:48.755Z,13.80
2023-05-13T03:59:21.145Z,12.97
2023-05-13T04:01:53.411Z,13.23
2023-05-13T04:04:25.865Z,13.50
2023-05-13T04:06:58.596Z,15.57
2023-05-13T04:09:33.065Z,13.83
2023-05-13T04:12:05.589Z,13.97
2023-05-13T04:14:40.222Z,13.03
2023-05-13T04:17:12.665Z,13.47
2023-05-13T04:19:44.883Z,19.80
2023-05-13T04:22:20.050Z,14.17
2023-05-13T04:24:56.849Z,14.67
2023-05-13T04:27:29.691Z,15.27
2023-05-13T04:30:10.873Z,13.07
2023-05-13T04:32:47.120Z,16.37
2023-05-13T04:35:20.423Z,15.37
2023-05-13T04:37:58.626Z,13.63
2023-05-13T04:40:32.416Z,15.27
2023-05-13T04:43:10.097Z,14.97
2023-05-13T04:45:50.646Z,20.80
2023-05-13T04:48:28.099Z,18.37
2023-05-13T04:51:03.002Z,14.70
2023-05-13T04:53:41.412Z,11.93
2023-05-13T04:56:14.597Z,13.33
2023-05-13T04:58:46.880Z,16.60
2023-05-13T05:01:20.137Z,15.57
2023-05-13T05:03:53.325Z,14.03
2023-05-13T05:06:25.725Z,18.27
2023-05-13T05:08:58.355Z,18.00
2023-05-13T05:11:33.093Z,17.90
2023-05-13T05:14:11.247Z,19.60
2023-05-13T05:16:43.558Z,17.93
2023-05-13T05:19:16.838Z,14.03
2023-05-13T05:21:49.091Z,12.30
2023-05-13T05:24:21.623Z,14.80
2023-05-13T05:26:53.939Z,14.20
2023-05-13T05:29:28.402Z,13.80
2023-05-13T05:32:01.163Z,14.93
2023-05-13T05:34:33.946Z,14.97
2023-05-13T05:37:06.600Z,12.23
2023-05-13T05:39:45.332Z,16.40
2023-05-13T05:42:18.107Z,11.23
2023-05-13T05:44:50.495Z,13.37
2023-05-13T05:47:25.841Z,13.30
2023-05-13T05:49:58.598Z,14.47
2023-05-13T05:52:31.077Z,12.57
2023-05-13T05:55:04.286Z,18.77
2023-05-13T05:57:38.123Z,12.47
2023-05-13T06:00:16.553Z,13.37
2023-05-13T06:02:49.236Z,18.13
2023-05-13T06:05:22.420Z,20.02
2023-05-13T06:07:55.027Z,13.07
2023-05-13T06:10:28.161Z,13.90
2023-05-13T06:13:00.784Z,14.00
2023-05-13T06:15:34.970Z,12.17
2023-05-13T06:18:10.626Z,16.43
2023-05-13T06:20:42.989Z,15.20
2023-05-13T06:23:16.072Z,13.57
2023-05-13T06:25:49.041Z,11.95
2023-05-13T06:28:21.792Z,8.60
2023-05-13T06:30:56.802Z,12.13
2023-05-13T06:33:30.064Z,16.93
2023-05-13T06:36:02.837Z,8.73
2023-05-13T06:38:35.500Z,11.13
2023-05-13T06:41:14.454Z,10.30
2023-05-13T06:43:49.104Z,10.33
2023-05-13T06:46:27.091Z,8.87
2023-05-13T06:49:00.296Z,10.63
2023-05-13T06:51:34.164Z,11.48
2023-05-13T06:54:06.746Z,8.73
2023-05-13T06:56:41.432Z,11.27
2023-05-13T06:59:13.833Z,11.97
2023-05-13T07:01:46.267Z,6.20
2023-05-13T07:04:18.622Z,10.70
2023-05-13T07:06:51.882Z,9.17
2023-05-13T07:09:24.184Z,8.20
2023-05-13T07:11:56.932Z,5.80
2023-05-13T07:14:29.172Z,7.03
2023-05-13T07:17:04.852Z,11.00
2023-05-13T07:19:39.444Z,6.65
2023-05-13T07:22:11.856Z,5.83
2023-05-13T07:24:44.043Z,5.37
2023-05-13T07:27:17.010Z,5.70
2023-05-13T07:29:49.233Z,5.47
2023-05-13T07:32:21.886Z,8.33
2023-05-13T07:34:54.324Z,7.07
2023-05-13T07:37:29.793Z,7.73
2023-05-13T07:40:05.886Z,6.50
2023-05-13T07:45:14.778Z,6.63
2023-05-13T07:47:47.026Z,10.58
2023-05-13T07:50:19.483Z,5.50
2023-05-13T07:52:52.082Z,7.30
2023-05-13T07:55:26.677Z,9.47
2023-05-13T07:57:59.107Z,7.93
2023-05-13T08:00:32.208Z,6.97
2023-05-13T08:03:06.346Z,6.22
2023-05-13T08:05:41.557Z,5.93
2023-05-13T08:08:14.197Z,8.17
2023-05-13T08:10:46.520Z,4.77
2023-05-13T08:13:18.868Z,5.97
2023-05-13T08:15:52.015Z,4.90
2023-05-13T08:18:24.311Z,6.28
2023-05-13T08:20:56.765Z,7.70
2023-05-13T08:23:43.577Z,13.07
2023-05-13T08:26:17.016Z,4.93
2023-05-13T08:28:52.194Z,5.53
2023-05-13T08:31:27.003Z,4.70
2023-05-13T08:33:59.486Z,5.63
2023-05-13T08:36:31.704Z,8.27
2023-05-13T08:39:03.873Z,5.67
2023-05-13T08:41:38.074Z,6.90
2023-05-13T08:44:13.450Z,6.83
2023-05-13T08:46:52.270Z,4.25
2023-05-13T08:49:24.771Z,8.27
2023-05-13T08:51:57.091Z,8.23
2023-05-13T08:54:30.795Z,5.00
2023-05-13T08:57:03.690Z,9.27
2023-05-13T08:59:36.920Z,8.65
2023-05-13T09:02:10.799Z,7.03
2023-05-13T09:04:44.561Z,5.17
2023-05-13T09:07:17.298Z,6.13
2023-05-13T09:09:50.951Z,6.85
2023-05-13T09:12:48.529Z,4.67
2023-05-13T09:15:23.001Z,7.30
2023-05-13T09:18:00.353Z,4.73
2023-05-13T09:20:33.451Z,5.07
2023-05-13T09:23:07.765Z,4.58
2023-05-13T09:25:41.651Z,4.77
2023-05-13T09:28:16.978Z,6.10
2023-05-13T09:30:57.814Z,4.07
2023-05-13T09:33:33.053Z,4.77
2023-05-13T09:36:08.464Z,4.23
2023-05-13T09:38:41.534Z,5.70
2023-05-13T09:41:14.192Z,6.78
2023-05-13T09:43:46.430Z,5.40
2023-05-13T09:46:18.803Z,3.37
2023-05-13T09:48:57.219Z,3.77
2023-05-13T09:51:31.382Z,7.53
2023-05-13T09:54:08.813Z,4.00
2023-05-13T09:56:43.966Z,3.77
2023-05-13T09:59:18.296Z,5.73
2023-05-13T10:01:51.219Z,5.27
2023-05-13T10:04:25.017Z,4.05
2023-05-13T10:06:59.151Z,3.50
2023-05-13T10:09:36.050Z,4.67
2023-05-13T10:12:16.072Z,7.13
2023-05-13T10:14:49.261Z,5.00
2023-05-13T10:17:23.653Z,4.73
2023-05-13T10:19:57.463Z,5.50
2023-05-13T10:22:31.824Z,5.00
2023-05-13T10:25:05.262Z,4.07
2023-05-13T10:27:42.091Z,4.55
2023-05-13T10:30:16.802Z,3.70
2023-05-13T10:32:49.243Z,3.55
2023-05-13T10:35:25.198Z,4.70
2023-05-13T10:38:12.426Z,5.20
2023-05-13T10:41:10.195Z,4.80
2023-05-13T10:43:44.626Z,6.83
2023-05-13T10:46:16.876Z,6.87
2023-05-13T10:48:58.632Z,3.23
2023-05-13T10:51:32.370Z,4.73
2023-05-13T10:54:18.893Z,4.20
2023-05-13T10:56:59.525Z,4.83
2023-05-13T10:59:31.881Z,3.57
2023-05-13T11:02:21.511Z,4.95
2023-05-13T11:05:06.324Z,4.40
2023-05-13T11:07:41.096Z,4.87
2023-05-13T11:13:24.938Z,3.50
2023-05-13T11:15:57.718Z,2.90
2023-05-13T11:18:34.764Z,3.58
2023-05-13T11:21:09.361Z,3.27
2023-05-13T11:23:58.036Z,3.00
2023-05-13T11:26:46.692Z,4.60
2023-05-13T11:29:30.893Z,4.50
2023-05-13T11:32:05.083Z,4.10
2023-05-13T11:34:38.556Z,8.33
2023-05-13T11:37:12.236Z,4.03
2023-05-13T11:39:44.830Z,7.07
2023-05-13T11:42:18.001Z,6.08
2023-05-13T11:44:50.537Z,7.37
2023-05-13T11:47:29.593Z,4.22
2023-05-13T11:50:01.993Z,9.10
2023-05-13T11:52:38.693Z,4.67
2023-05-13T11:55:11.577Z,5.53
2023-05-13T11:57:51.243Z,7.45
2023-05-13T12:00:27.814Z,4.10
2023-05-13T12:03:01.550Z,4.10
2023-05-13T12:05:34.639Z,4.63
2023-05-13T12:08:11.082Z,4.73
2023-05-13T12:10:47.318Z,4.23
2023-05-13T12:13:20.012Z,5.30
2023-05-13T12:15:53.634Z,8.50
2023-05-13T12:18:26.231Z,3.80
2023-05-13T12:20:58.538Z,3.47
2023-05-13T12:23:42.811Z,2.70
2023-05-13T12:26:15.186Z,8.10
2023-05-13T12:28:48.632Z,3.93
2023-05-13T12:33:52.136Z,3.97
2023-05-13T12:36:32.515Z,4.63
2023-05-13T12:39:07.521Z,4.37
2023-05-13T12:41:42.514Z,8.83
2023-05-13T12:44:17.243Z,4.10
2023-05-13T12:46:55.903Z,5.90
2023-05-13T12:49:28.597Z,3.80
2023-05-13T12:52:06.069Z,4.33
2023-05-13T12:54:39.171Z,4.20
2023-05-13T12:57:16.805Z,4.22
2023-05-13T12:59:49.239Z,4.83
2023-05-13T13:02:21.613Z,7.90
2023-05-13T13:04:54.258Z,3.02
2023-05-13T13:07:26.635Z,4.47
2023-05-13T13:09:59.938Z,6.43
2023-05-13T13:15:03.934Z,4.33
2023-05-13T13:17:43.835Z,3.75
2023-05-13T13:20:16.866Z,5.97
2023-05-13T13:22:49.353Z,3.90
2023-05-13T13:25:22.674Z,2.83
2023-05-13T13:30:26.756Z,10.75
2023-05-13T13:32:59.168Z,7.90
2023-05-13T13:35:32.023Z,7.58
2023-05-13T13:38:04.592Z,3.23
2023-05-13T13:40:37.296Z,6.67
2023-05-13T13:43:10.313Z,7.53
2023-05-13T13:45:43.123Z,5.65
2023-05-13T13:48:15.986Z,6.17
2023-05-13T13:50:50.525Z,4.15
2023-05-13T13:53:24.263Z,5.93
2023-05-13T13:55:56.571Z,6.05
2023-05-13T13:58:28.997Z,7.63
2023-05-13T14:01:01.421Z,3.87
2023-05-13T14:03:34.011Z,3.57
2023-05-13T14:06:07.647Z,3.50
2023-05-13T14:08:40.192Z,3.23
2023-05-13T14:11:12.702Z,4.23
2023-05-13T14:13:45.236Z,5.55
2023-05-13T14:16:18.008Z,7.23
2023-05-13T14:18:50.487Z,5.10
2023-05-13T14:21:23.289Z,5.58
2023-05-13T14:23:55.711Z,4.63
2023-05-13T14:26:28.474Z,4.33
2023-05-13T14:29:01.329Z,8.10
2023-05-13T14:31:34.213Z,5.17
2023-05-13T14:34:10.690Z,4.97
2023-05-13T14:36:43.539Z,4.30
2023-05-13T14:39:15.996Z,6.17
2023-05-13T14:41:48.419Z,4.00
2023-05-13T14:44:20.835Z,7.30
2023-05-13T14:46:53.759Z,4.43
2023-05-13T14:49:27.470Z,3.40
2023-05-13T14:52:00.047Z,4.80
2023-05-13T14:54:37.198Z,4.87
2023-05-13T14:57:11.297Z,4.57
2023-05-13T14:59:44.072Z,4.47
2023-05-13T15:02:18.559Z,3.70
2023-05-13T15:04:53.632Z,3.97
2023-05-13T15:07:27.357Z,6.10
2023-05-13T15:10:04.479Z,5.20
2023-05-13T15:12:39.360Z,5.27
2023-05-13T15:15:15.055Z,5.83
2023-05-13T15:17:47.792Z,5.90
2023-05-13T15:20:20.911Z,6.03
2023-05-13T15:22:53.461Z,3.90
2023-05-13T15:25:26.396Z,3.57
2023-05-13T15:28:00.055Z,5.63
2023-05-13T15:30:37.214Z,3.50
2023-05-13T15:33:09.721Z,3.77
2023-05-13T15:35:44.079Z,3.92
2023-05-13T15:38:17.308Z,7.37
2023-05-13T15:43:22.074Z,6.23
2023-05-13T15:45:57.978Z,6.50
2023-05-13T15:48:30.688Z,6.17
2023-05-13T15:51:04.615Z,6.08
2023-05-13T15:53:39.505Z,6.45
2023-05-13T15:56:20.372Z,7.60
2023-05-13T15:58:56.243Z,6.17
2023-05-13T16:01:29.432Z,4.53
2023-05-13T16:04:02.561Z,4.75
2023-05-13T16:06:35.547Z,4.83
2023-05-13T16:09:10.956Z,6.87
2023-05-13T16:11:44.036Z,3.90
2023-05-13T16:14:18.254Z,6.50
2023-05-13T16:16:52.347Z,4.00
2023-05-13T16:19:24.683Z,5.13
2023-05-13T16:21:57.171Z,5.23
2023-05-13T16:24:29.660Z,5.80
2023-05-13T16:27:02.083Z,7.43
2023-05-13T16:29:34.513Z,4.13
2023-05-13T16:32:09.115Z,4.83
2023-05-13T16:37:12.349Z,3.80
2023-05-13T16:39:44.956Z,3.10
2023-05-13T16:42:17.609Z,4.37
2023-05-13T16:44:50.398Z,4.17
2023-05-13T16:47:23.209Z,5.50
2023-05-13T16:49:56.384Z,5.00
2023-05-13T16:52:31.565Z,5.43
2023-05-13T16:55:03.988Z,2.73
2023-05-13T16:57:40.224Z,4.13
2023-05-13T17:00:16.274Z,5.27
2023-05-13T17:02:48.986Z,2.93
2023-05-13T17:05:21.516Z,7.47
2023-05-13T17:07:54.130Z,4.93
2023-05-13T17:10:26.523Z,4.90
2023-05-13T17:12:59.196Z,6.43
2023-05-13T17:15:32.175Z,3.65
2023-05-13T17:18:04.915Z,6.03
2023-05-13T17:20:40.904Z,3.47
2023-05-13T17:23:13.589Z,3.57
2023-05-13T17:25:46.057Z,3.87
2023-05-13T17:28:18.631Z,8.63
2023-05-13T17:30:51.249Z,11.63
2023-05-13T17:33:24.514Z,11.77
2023-05-13T17:35:57.117Z,5.20
2023-05-13T17:38:29.669Z,6.37
2023-05-13T17:41:02.063Z,6.37
2023-05-13T17:43:34.443Z,4.70
2023-05-13T17:46:07.502Z,5.93
2023-05-13T17:48:40.148Z,4.55
2023-05-13T17:51:13.795Z,5.97
2023-05-13T17:53:46.411Z,3.83
2023-05-13T17:56:19.148Z,3.97
2023-05-13T17:58:51.549Z,3.97
2023-05-13T18:01:23.874Z,3.70
2023-05-13T18:03:56.579Z,4.83
2023-05-13T18:06:29.160Z,3.63
2023-05-13T18:09:02.739Z,4.10
2023-05-13T18:11:35.860Z,4.70
2023-05-13T18:14:09.102Z,4.97
2023-05-13T18:16:44.148Z,5.97
2023-05-13T18:19:16.796Z,4.93
2023-05-13T18:21:49.453Z,6.63
2023-05-13T18:24:22.279Z,7.57
2023-05-13T18:26:57.122Z,8.20
2023-05-13T18:29:29.573Z,6.73
2023-05-13T18:32:05.153Z,5.57
2023-05-13T18:34:39.946Z,4.30
2023-05-13T18:37:13.206Z,6.53
2023-05-13T18:39:46.193Z,7.00
2023-05-13T18:42:19.272Z,7.35
2023-05-13T18:44:52.455Z,6.67
2023-05-13T18:47:25.071Z,6.23
2023-05-13T18:49:57.514Z,5.20
2023-05-13T18:52:29.941Z,4.40
2023-05-13T18:55:03.799Z,4.30
2023-05-13T18:57:37.555Z,5.30
2023-05-13T19:00:12.317Z,6.27
2023-05-13T19:02:45.118Z,4.63
2023-05-13T19:05:20.317Z,4.33
2023-05-13T19:07:53.226Z,8.60
2023-05-13T19:10:25.885Z,6.17
2023-05-13T19:12:58.248Z,6.57
2023-05-13T19:15:30.801Z,4.93
2023-05-13T19:18:03.598Z,5.23
2023-05-13T19:20:35.964Z,9.07
2023-05-13T19:23:09.119Z,5.30
2023-05-13T19:25:42.715Z,5.40
2023-05-13T19:28:16.420Z,5.50
2023-05-13T19:30:49.226Z,8.87
2023-05-13T19:33:21.548Z,6.43
2023-05-13T19:35:53.828Z,5.20
2023-05-13T19:38:26.354Z,6.23
2023-05-13T19:41:01.989Z,5.50
2023-05-13T19:43:34.737Z,6.47
2023-05-13T19:46:07.783Z,7.50
2023-05-13T19:48:41.592Z,6.73
2023-05-13T19:51:14.017Z,6.60
2023-05-13T19:53:46.341Z,6.97
2023-05-13T19:56:19.057Z,11.87
2023-05-13T19:58:53.516Z,9.97
2023-05-13T20:01:27.211Z,8.43
2023-05-13T20:04:00.545Z,10.37
2023-05-13T20:06:33.827Z,8.90
2023-05-13T20:09:06.804Z,7.40
2023-05-13T20:11:41.391Z,15.90
2023-05-13T20:14:13.948Z,6.40
2023-05-13T20:16:46.313Z,9.20
2023-05-13T20:19:18.796Z,8.23
2023-05-13T20:21:53.578Z,11.50
2023-05-13T20:24:25.815Z,9.47
2023-05-13T20:27:00.433Z,6.17
2023-05-13T20:29:38.887Z,6.93
2023-05-13T20:32:11.765Z,9.00
2023-05-13T20:34:44.230Z,8.93
2023-05-13T20:37:17.113Z,7.27
2023-05-13T20:39:49.678Z,9.37
2023-05-13T20:42:22.919Z,10.53
2023-05-13T20:44:55.359Z,6.13
2023-05-13T20:47:27.868Z,7.07
2023-05-13T20:50:00.658Z,10.53
2023-05-13T20:52:35.917Z,8.10
2023-05-13T20:55:10.902Z,8.63
2023-05-13T20:57:45.516Z,7.90
2023-05-13T21:00:18.937Z,6.63
2023-05-13T21:02:52.124Z,12.23
2023-05-13T21:05:24.872Z,10.23
2023-05-13T21:07:57.378Z,6.20
2023-05-13T21:10:29.978Z,12.40
2023-05-13T21:13:02.762Z,7.70
2023-05-13T21:15:35.929Z,7.67
2023-05-13T21:18:09.172Z,6.58
2023-05-13T21:20:46.185Z,8.13
2023-05-13T21:23:20.454Z,9.63
2023-05-13T21:25:52.919Z,8.10
2023-05-13T21:28:25.264Z,7.87
2023-05-13T21:30:57.587Z,8.50
2023-05-13T21:33:30.417Z,10.07
2023-05-13T21:36:02.758Z,8.87
2023-05-13T21:38:34.732Z,8.33
2023-05-13T21:41:07.667Z,9.93
2023-05-13T21:43:40.326Z,15.97
2023-05-13T21:46:14.180Z,8.88
2023-05-13T21:48:48.400Z,12.07
2023-05-13T21:51:21.125Z,12.03
2023-05-13T21:53:53.482Z,10.97
2023-05-13T21:56:25.868Z,12.67
2023-05-13T21:58:58.122Z,8.17
2023-05-13T22:01:30.410Z,11.97
2023-05-13T22:04:02.728Z,11.83
2023-05-13T22:06:35.037Z,13.80
2023-05-13T22:09:08.019Z,17.27
2023-05-13T22:11:40.257Z,20.20
2023-05-13T22:14:13.198Z,19.97
2023-05-13T22:16:51.894Z,16.10
2023-05-13T22:22:01.652Z,15.27
2023-05-13T22:24:33.943Z,13.13
2023-05-13T22:27:07.016Z,15.83
2023-05-13T22:29:41.437Z,15.13
2023-05-13T22:32:13.978Z,19.93
2023-05-13T22:34:46.632Z,13.83
2023-05-13T22:37:19.133Z,11.03
2023-05-13T22:39:51.524Z,18.30
2023-05-13T22:42:23.878Z,13.07
2023-05-13T22:44:56.338Z,12.63
2023-05-13T22:47:28.706Z,16.00
2023-05-13T22:50:01.083Z,17.50
2023-05-13T22:52:33.964Z,11.83
2023-05-13T22:55:06.914Z,11.73
2023-05-13T22:57:40.688Z,15.53
2023-05-13T23:00:18.298Z,13.03
2023-05-13T23:02:50.767Z,16.57
2023-05-13T23:05:23.265Z,13.97
2023-05-13T23:07:55.741Z,16.87
2023-05-13T23:10:28.116Z,17.80
2023-05-13T23:13:00.625Z,14.20
2023-05-13T23:15:32.858Z,13.57
2023-05-13T23:18:05.349Z,13.87
2023-05-13T23:20:38.368Z,12.87
2023-05-13T23:23:10.742Z,12.50
2023-05-13T23:25:45.825Z,11.43
2023-05-13T23:28:21.079Z,11.17
2023-05-13T23:30:58.227Z,13.63
2023-05-13T23:33:30.529Z,15.83
2023-05-13T23:36:03.036Z,21.03
2023-05-13T23:38:35.883Z,14.70
2023-05-13T23:41:10.990Z,21.73
2023-05-13T23:43:43.632Z,21.37
2023-05-13T23:46:19.463Z,20.20
2023-05-13T23:48:54.913Z,15.07
2023-05-13T23:51:27.332Z,14.60
2023-05-13T23:54:00.098Z,13.00
2023-05-13T23:56:32.384Z,15.07
2023-05-13T23:59:04.613Z,12.87
